createdAt,value
2018-08-18T00:00:16.886Z,99.50
2018-08-18T00:02:45.342Z,99.50
2018-08-18T00:05:14.692Z,99.90
2018-08-18T00:07:43.385Z,99.90
2018-08-18T00:10:13.901Z,99.90
2018-08-18T00:12:42.351Z,99.90
2018-08-18T00:15:10.835Z,99.90
2018-08-18T00:17:39.882Z,99.90
2018-08-18T00:20:13.223Z,99.90
2018-08-18T00:22:41.708Z,99.90
2018-08-18T00:25:10.175Z,99.90
2018-08-18T00:27:38.718Z,99.90
2018-08-18T00:30:14.214Z,99.90
2018-08-18T00:32:42.756Z,99.90
2018-08-18T00:35:11.234Z,99.90
2018-08-18T00:37:39.712Z,99.90
2018-08-18T00:40:09.471Z,99.90
2018-08-18T00:42:38.231Z,99.90
2018-08-18T00:45:08.366Z,99.90
2018-08-18T00:47:37.145Z,99.90
2018-08-18T00:50:06.026Z,99.90
2018-08-18T00:52:34.526Z,99.90
2018-08-18T00:55:03.178Z,99.90
2018-08-18T00:57:32.419Z,99.90
2018-08-18T01:00:01.054Z,99.90
2018-08-18T01:02:29.689Z,99.90
2018-08-18T01:04:59.519Z,99.90
2018-08-18T01:07:29.089Z,99.90
2018-08-18T01:09:58.025Z,99.90
2018-08-18T01:12:27.329Z,99.90
2018-08-18T01:14:56.167Z,99.90
2018-08-18T01:17:24.925Z,99.90
2018-08-18T01:19:55.014Z,99.90
2018-08-18T01:22:23.478Z,99.90
2018-08-18T01:24:52.703Z,99.90
2018-08-18T01:27:21.572Z,99.90
2018-08-18T01:29:55.124Z,99.90
2018-08-18T01:32:23.676Z,99.90
2018-08-18T01:34:52.895Z,99.90
2018-08-18T01:37:21.842Z,99.90
2018-08-18T01:39:51.500Z,99.90
2018-08-18T01:42:19.963Z,99.90
2018-08-18T01:44:48.772Z,99.90
2018-08-18T01:47:17.439Z,99.90
2018-08-18T01:49:45.914Z,99.90
2018-08-18T01:52:19.644Z,99.90
2018-08-18T01:54:48.051Z,99.90
2018-08-18T01:57:18.566Z,99.90
2018-08-18T01:59:47.414Z,99.90
2018-08-18T02:02:17.312Z,99.90
2018-08-18T02:04:46.279Z,99.90
2018-08-18T02:07:17.869Z,99.90
2018-08-18T02:09:46.375Z,99.90
2018-08-18T02:12:14.840Z,99.90
2018-08-18T02:14:43.396Z,99.90
2018-08-18T02:17:18.823Z,99.90
2018-08-18T02:19:47.376Z,99.90
2018-08-18T02:22:15.766Z,99.90
2018-08-18T02:24:44.630Z,99.90
2018-08-18T02:27:13.507Z,99.90
2018-08-18T02:29:42.001Z,99.90
2018-08-18T02:32:37.593Z,99.90
2018-08-18T02:35:06.659Z,99.90
2018-08-18T02:37:35.113Z,99.90
2018-08-18T02:40:04.721Z,99.90
2018-08-18T02:42:33.085Z,99.90
2018-08-18T02:45:01.584Z,99.90
2018-08-18T02:47:29.983Z,99.90
2018-08-18T02:50:00.610Z,99.90
2018-08-18T02:52:32.695Z,99.90
2018-08-18T02:55:02.480Z,99.90
2018-08-18T02:57:33.178Z,99.90
2018-08-18T03:00:02.937Z,99.90
2018-08-18T03:02:31.412Z,99.90
2018-08-18T03:04:59.945Z,99.90
2018-08-18T03:07:36.947Z,99.90
2018-08-18T03:10:37.554Z,99.90
2018-08-18T03:13:05.995Z,99.90
2018-08-18T03:16:12.513Z,99.90
2018-08-18T03:18:47.431Z,99.90
2018-08-18T03:21:16.277Z,99.90
2018-08-18T03:24:12.832Z,99.90
2018-08-18T03:26:42.614Z,99.90
2018-08-18T03:29:11.870Z,99.90
2018-08-18T03:31:41.005Z,99.90
2018-08-18T03:34:09.769Z,99.90
2018-08-18T03:36:42.901Z,99.90
2018-08-18T03:39:24.246Z,99.90
2018-08-18T03:41:54.077Z,99.90
2018-08-18T03:44:22.734Z,99.90
2018-08-18T03:46:51.237Z,99.90
2018-08-18T03:49:19.926Z,99.90
2018-08-18T03:51:51.645Z,99.90
2018-08-18T03:54:20.151Z,99.90
2018-08-18T03:56:49.275Z,99.90
2018-08-18T03:59:17.661Z,99.90
2018-08-18T04:02:04.569Z,99.90
2018-08-18T04:04:34.283Z,99.90
2018-08-18T04:07:04.147Z,99.90
2018-08-18T04:09:34.743Z,99.90
2018-08-18T04:12:04.487Z,99.90
2018-08-18T04:14:38.246Z,99.90
2018-08-18T04:17:18.038Z,99.90
2018-08-18T04:19:47.155Z,99.90
2018-08-18T04:22:15.950Z,99.90
2018-08-18T04:24:46.523Z,99.90
2018-08-18T04:27:21.047Z,99.90
2018-08-18T04:29:49.854Z,99.90
2018-08-18T04:32:18.354Z,99.90
2018-08-18T04:34:46.814Z,99.90
2018-08-18T04:37:15.246Z,99.90
2018-08-18T04:39:43.699Z,99.90
2018-08-18T04:42:12.105Z,99.90
2018-08-18T04:44:40.578Z,99.90
2018-08-18T04:47:11.013Z,99.90
2018-08-18T04:49:39.454Z,99.90
2018-08-18T04:52:07.898Z,99.90
2018-08-18T04:54:36.345Z,99.90
2018-08-18T04:57:04.884Z,99.90
2018-08-18T04:59:33.314Z,99.90
2018-08-18T05:02:01.767Z,99.90
2018-08-18T05:04:30.222Z,99.90
2018-08-18T05:06:58.706Z,99.90
2018-08-18T05:09:27.139Z,99.90
2018-08-18T05:11:55.603Z,99.90
2018-08-18T05:14:24.053Z,99.90
2018-08-18T05:16:52.675Z,99.90
2018-08-18T05:19:21.260Z,99.90
2018-08-18T05:21:50.374Z,99.90
2018-08-18T05:24:23.203Z,99.90
2018-08-18T05:26:52.714Z,99.90
2018-08-18T05:29:21.301Z,99.90
2018-08-18T05:31:49.818Z,99.90
2018-08-18T05:34:18.247Z,99.90
2018-08-18T05:36:46.685Z,99.90
2018-08-18T05:39:15.738Z,99.90
2018-08-18T05:41:44.226Z,99.90
2018-08-18T05:44:12.728Z,99.90
2018-08-18T05:46:41.219Z,99.90
2018-08-18T05:49:14.118Z,99.90
2018-08-18T05:51:44.849Z,99.90
2018-08-18T05:54:15.105Z,99.90
2018-08-18T05:56:44.865Z,99.90
2018-08-18T05:59:13.319Z,99.90
2018-08-18T06:01:42.309Z,99.90
2018-08-18T06:04:12.983Z,99.90
2018-08-18T06:06:42.066Z,99.90
2018-08-18T06:09:12.841Z,99.90
2018-08-18T06:11:41.440Z,99.90
2018-08-18T06:14:10.763Z,99.90
2018-08-18T06:16:39.522Z,99.90
2018-08-18T06:19:08.092Z,99.90
2018-08-18T06:21:36.570Z,99.80
2018-08-18T06:24:05.159Z,99.90
2018-08-18T06:26:33.757Z,99.90
2018-08-18T06:29:02.559Z,99.70
2018-08-18T06:31:31.096Z,99.20
2018-08-18T06:33:59.542Z,99.30
2018-08-18T06:36:28.123Z,98.50
2018-08-18T06:38:56.623Z,98.50
2018-08-18T06:41:25.171Z,98.00
2018-08-18T06:43:53.571Z,98.10
2018-08-18T06:46:22.022Z,97.40
2018-08-18T06:48:50.467Z,97.70
2018-08-18T06:51:18.942Z,96.90
2018-08-18T06:53:48.343Z,97.20
2018-08-18T06:56:16.797Z,97.60
2018-08-18T06:58:45.283Z,97.20
2018-08-18T07:01:13.822Z,96.90
2018-08-18T07:03:49.874Z,96.90
2018-08-18T07:06:18.326Z,97.10
2018-08-18T07:08:52.724Z,96.80
2018-08-18T07:11:21.342Z,96.90
2018-08-18T07:13:50.239Z,96.20
2018-08-18T07:16:18.758Z,95.80
2018-08-18T07:18:47.205Z,95.70
2018-08-18T07:21:15.674Z,95.50
2018-08-18T07:23:44.159Z,95.70
2018-08-18T07:26:12.558Z,95.60
2018-08-18T07:28:41.194Z,94.30
2018-08-18T07:31:09.566Z,95.00
2018-08-18T07:33:38.019Z,94.80
2018-08-18T07:36:06.606Z,93.90
2018-08-18T07:38:35.224Z,93.50
2018-08-18T07:41:03.651Z,93.20
2018-08-18T07:43:33.439Z,92.30
2018-08-18T07:46:04.433Z,92.30
2018-08-18T07:48:32.945Z,90.90
2018-08-18T07:51:01.476Z,91.30
2018-08-18T07:53:29.987Z,91.20
2018-08-18T07:55:58.382Z,89.20
2018-08-18T07:58:26.897Z,87.90
2018-08-18T08:00:57.611Z,89.70
2018-08-18T08:03:26.099Z,89.70
2018-08-18T08:05:54.534Z,86.70
2018-08-18T08:08:22.996Z,85.70
2018-08-18T08:10:53.730Z,83.90
2018-08-18T08:13:22.173Z,82.90
2018-08-18T08:15:50.619Z,84.40
2018-08-18T08:18:19.292Z,82.50
2018-08-18T08:20:47.678Z,82.50
2018-08-18T08:23:16.147Z,82.40
2018-08-18T08:25:44.679Z,83.50
2018-08-18T08:28:13.972Z,81.60
2018-08-18T08:30:42.450Z,80.20
2018-08-18T08:33:13.108Z,80.00
2018-08-18T08:35:41.550Z,79.60
2018-08-18T08:38:10.106Z,77.60
2018-08-18T08:40:38.597Z,77.40
2018-08-18T08:43:07.379Z,77.50
2018-08-18T08:45:36.162Z,75.00
2018-08-18T08:48:04.646Z,74.50
2018-08-18T08:50:33.126Z,76.30
2018-08-18T08:53:01.594Z,75.50
2018-08-18T08:55:30.033Z,75.90
2018-08-18T08:57:58.517Z,79.50
2018-08-18T09:00:26.921Z,75.60
2018-08-18T09:02:55.430Z,76.30
2018-08-18T09:05:23.966Z,73.50
2018-08-18T09:07:52.428Z,73.30
2018-08-18T09:10:20.973Z,72.60
2018-08-18T09:12:49.583Z,71.90
2018-08-18T09:15:18.137Z,72.20
2018-08-18T09:17:46.660Z,73.80
2018-08-18T09:20:17.378Z,74.90
2018-08-18T09:23:00.259Z,73.50
2018-08-18T09:25:30.265Z,73.30
2018-08-18T09:28:00.296Z,73.00
2018-08-18T09:30:29.991Z,70.70
2018-08-18T09:32:59.710Z,72.10
2018-08-18T09:35:28.128Z,72.10
2018-08-18T09:37:59.532Z,72.30
2018-08-18T09:40:29.555Z,71.00
2018-08-18T09:42:58.076Z,71.80
2018-08-18T09:45:26.986Z,73.40
2018-08-18T09:47:55.623Z,71.90
2018-08-18T09:50:24.747Z,69.70
2018-08-18T09:52:53.219Z,69.60
2018-08-18T09:55:21.690Z,67.30
2018-08-18T09:57:50.488Z,66.30
2018-08-18T10:00:23.142Z,66.50
2018-08-18T10:02:51.797Z,67.00
2018-08-18T10:05:20.585Z,66.60
2018-08-18T10:07:49.059Z,67.90
2018-08-18T10:10:17.603Z,65.10
2018-08-18T10:12:46.044Z,63.30
2018-08-18T10:15:14.543Z,62.90
2018-08-18T10:17:43.047Z,64.30
2018-08-18T10:20:11.858Z,62.30
2018-08-18T10:22:40.414Z,63.50
2018-08-18T10:25:08.984Z,62.50
2018-08-18T10:27:37.981Z,58.00
2018-08-18T10:30:06.518Z,56.60
2018-08-18T10:32:39.560Z,57.00
2018-08-18T10:35:08.117Z,57.30
2018-08-18T10:37:37.180Z,57.20
2018-08-18T10:40:10.906Z,58.30
2018-08-18T10:42:39.350Z,59.80
2018-08-18T10:45:07.852Z,60.00
2018-08-18T10:47:36.299Z,59.90
2018-08-18T10:50:49.209Z,60.20
2018-08-18T10:53:17.649Z,59.20
2018-08-18T10:55:46.118Z,59.50
2018-08-18T10:58:24.634Z,60.50
2018-08-18T11:00:53.138Z,58.00
2018-08-18T11:03:21.615Z,56.70
2018-08-18T11:05:50.054Z,58.50
2018-08-18T11:08:18.543Z,56.10
2018-08-18T11:10:47.031Z,57.20
2018-08-18T11:13:15.479Z,55.00
2018-08-18T11:15:44.510Z,57.40
2018-08-18T11:18:13.076Z,57.10
2018-08-18T11:20:41.720Z,56.60
2018-08-18T11:23:12.107Z,58.00
2018-08-18T11:25:46.730Z,54.80
2018-08-18T11:28:15.657Z,54.40
2018-08-18T11:30:44.111Z,56.60
2018-08-18T11:33:23.239Z,57.30
2018-08-18T11:35:51.731Z,55.00
2018-08-18T11:38:20.245Z,56.00
2018-08-18T11:40:48.694Z,56.30
2018-08-18T11:43:17.602Z,58.00
2018-08-18T11:45:46.382Z,55.90
2018-08-18T11:48:19.504Z,55.40
2018-08-18T11:50:48.393Z,54.40
2018-08-18T11:53:16.946Z,54.90
2018-08-18T11:55:45.459Z,55.90
2018-08-18T11:58:18.132Z,54.50
2018-08-18T12:00:56.170Z,56.40
2018-08-18T12:03:28.383Z,55.50
2018-08-18T12:06:00.998Z,55.80
2018-08-18T12:08:30.776Z,56.40
2018-08-18T12:11:00.685Z,55.10
2018-08-18T12:13:34.286Z,54.80
2018-08-18T12:16:16.175Z,54.90
2018-08-18T12:18:45.827Z,53.10
2018-08-18T12:21:14.626Z,54.70
2018-08-18T12:23:46.388Z,54.70
2018-08-18T12:26:17.135Z,55.60
2018-08-18T12:28:49.799Z,54.80
2018-08-18T12:31:21.428Z,55.20
2018-08-18T12:33:49.904Z,54.20
2018-08-18T12:36:18.537Z,54.80
2018-08-18T12:38:51.830Z,55.30
2018-08-18T12:41:20.323Z,55.30
2018-08-18T12:43:50.617Z,55.40
2018-08-18T12:46:20.327Z,55.40
2018-08-18T12:48:54.070Z,56.00
2018-08-18T12:51:22.596Z,55.10
2018-08-18T12:53:55.645Z,53.80
2018-08-18T12:56:26.742Z,54.40
2018-08-18T12:58:55.272Z,53.80
2018-08-18T13:01:51.865Z,54.80
2018-08-18T13:04:21.421Z,54.70
2018-08-18T13:06:51.418Z,54.20
2018-08-18T13:09:22.401Z,54.20
2018-08-18T13:11:52.492Z,54.20
2018-08-18T13:14:24.080Z,53.30
2018-08-18T13:16:52.611Z,53.60
2018-08-18T13:19:23.639Z,53.80
2018-08-18T13:21:52.171Z,53.40
2018-08-18T13:24:20.647Z,53.00
2018-08-18T13:26:49.157Z,53.10
2018-08-18T13:29:17.596Z,52.90
2018-08-18T13:31:46.057Z,53.70
2018-08-18T13:34:15.923Z,53.70
2018-08-18T13:36:45.296Z,52.80
2018-08-18T13:39:15.253Z,53.10
2018-08-18T13:41:44.551Z,53.60
2018-08-18T13:44:25.248Z,54.20
2018-08-18T13:46:53.826Z,54.00
2018-08-18T13:49:24.483Z,54.70
2018-08-18T13:51:53.006Z,54.40
2018-08-18T13:54:21.475Z,54.30
2018-08-18T13:56:49.991Z,54.60
2018-08-18T13:59:49.515Z,53.50
2018-08-18T14:02:17.950Z,54.30
2018-08-18T14:04:46.507Z,54.60
2018-08-18T14:07:15.119Z,54.00
2018-08-18T14:09:51.476Z,52.90
2018-08-18T14:12:22.942Z,53.50
2018-08-18T14:14:51.455Z,53.90
2018-08-18T14:17:21.947Z,54.20
2018-08-18T14:19:51.177Z,53.60
2018-08-18T14:22:20.913Z,53.70
2018-08-18T14:24:49.406Z,53.20
2018-08-18T14:27:20.461Z,54.20
2018-08-18T14:29:48.886Z,53.70
2018-08-18T14:32:36.040Z,54.00
2018-08-18T14:35:07.174Z,54.40
2018-08-18T14:37:38.535Z,55.00
2018-08-18T14:40:09.235Z,55.20
2018-08-18T14:42:37.967Z,55.20
2018-08-18T14:45:08.728Z,55.80
2018-08-18T14:47:37.781Z,55.80
2018-08-18T14:50:25.895Z,55.40
2018-08-18T14:52:54.382Z,54.90
2018-08-18T14:55:22.861Z,55.20
2018-08-18T14:57:56.609Z,54.70
2018-08-18T15:00:25.188Z,54.60
2018-08-18T15:02:53.736Z,55.40
2018-08-18T15:05:22.193Z,54.00
2018-08-18T15:07:53.619Z,55.30
2018-08-18T15:10:42.493Z,55.80
2018-08-18T15:13:11.683Z,55.60
2018-08-18T15:15:40.326Z,56.10
2018-08-18T15:18:10.991Z,55.70
2018-08-18T15:20:40.107Z,55.70
2018-08-18T15:23:09.537Z,56.40
2018-08-18T15:25:39.089Z,56.30
2018-08-18T15:28:10.646Z,56.80
2018-08-18T15:30:40.384Z,57.70
2018-08-18T15:33:10.064Z,56.30
2018-08-18T15:35:39.611Z,55.80
2018-08-18T15:38:09.184Z,56.60
2018-08-18T15:40:37.751Z,56.50
2018-08-18T15:43:06.355Z,56.30
2018-08-18T15:45:46.053Z,56.70
2018-08-18T15:48:14.610Z,57.20
2018-08-18T15:50:43.070Z,57.50
2018-08-18T15:53:11.510Z,56.70
2018-08-18T15:55:39.940Z,56.60
2018-08-18T15:58:08.351Z,56.90
2018-08-18T16:00:36.958Z,56.70
2018-08-18T16:03:05.452Z,56.90
2018-08-18T16:05:33.948Z,57.40
2018-08-18T16:08:02.376Z,56.70
2018-08-18T16:10:30.817Z,57.20
2018-08-18T16:12:59.235Z,56.80
2018-08-18T16:15:27.665Z,57.10
2018-08-18T16:17:56.088Z,57.50
2018-08-18T16:20:25.580Z,56.20
2018-08-18T16:22:56.347Z,56.60
2018-08-18T16:25:36.428Z,56.30
2018-08-18T16:28:05.880Z,56.40
2018-08-18T16:30:35.075Z,57.10
2018-08-18T16:33:14.779Z,57.20
2018-08-18T16:35:44.399Z,56.60
2018-08-18T16:38:12.971Z,56.40
2018-08-18T16:40:41.651Z,57.10
2018-08-18T16:43:12.209Z,57.00
2018-08-18T16:45:40.690Z,57.20
2018-08-18T16:48:10.560Z,57.30
2018-08-18T16:50:39.966Z,57.70
2018-08-18T16:53:10.716Z,57.40
2018-08-18T16:55:44.363Z,57.90
2018-08-18T16:58:12.791Z,57.70
2018-08-18T17:00:56.694Z,58.10
2018-08-18T17:03:29.502Z,58.00
2018-08-18T17:05:58.600Z,58.00
2018-08-18T17:08:27.551Z,58.10
2018-08-18T17:10:56.004Z,58.50
2018-08-18T17:13:27.961Z,58.80
2018-08-18T17:15:56.526Z,58.90
2018-08-18T17:18:25.183Z,58.70
2018-08-18T17:20:58.467Z,59.10
2018-08-18T17:23:28.386Z,59.40
2018-08-18T17:25:56.849Z,59.30
2018-08-18T17:28:25.586Z,59.20
2018-08-18T17:30:54.296Z,58.80
2018-08-18T17:33:24.484Z,59.20
2018-08-18T17:35:52.931Z,59.00
2018-08-18T17:38:21.743Z,59.40
2018-08-18T17:40:50.315Z,59.30
2018-08-18T17:43:19.952Z,59.10
2018-08-18T17:46:05.059Z,59.10
2018-08-18T17:48:41.179Z,58.80
2018-08-18T17:51:09.968Z,59.40
2018-08-18T17:53:42.645Z,59.40
2018-08-18T17:56:11.955Z,59.50
2018-08-18T17:58:40.393Z,59.60
2018-08-18T18:01:08.926Z,59.80
2018-08-18T18:03:37.441Z,59.50
2018-08-18T18:06:06.186Z,59.80
2018-08-18T18:08:35.581Z,59.90
2018-08-18T18:11:04.113Z,60.20
2018-08-18T18:13:33.151Z,59.90
2018-08-18T18:16:01.749Z,59.70
2018-08-18T18:18:35.387Z,59.80
2018-08-18T18:21:03.856Z,60.00
2018-08-18T18:23:32.321Z,60.10
2018-08-18T18:26:00.732Z,60.80
2018-08-18T18:28:29.246Z,60.40
2018-08-18T18:30:57.846Z,60.10
2018-08-18T18:33:26.339Z,60.10
2018-08-18T18:35:54.719Z,60.00
2018-08-18T18:38:23.226Z,60.20
2018-08-18T18:40:51.667Z,60.30
2018-08-18T18:43:20.048Z,60.60
2018-08-18T18:45:48.556Z,60.60
2018-08-18T18:48:17.242Z,60.70
2018-08-18T18:50:47.837Z,61.80
2018-08-18T18:53:16.603Z,61.80
2018-08-18T18:55:50.540Z,61.60
2018-08-18T18:58:19.017Z,61.60
2018-08-18T19:00:53.894Z,61.80
2018-08-18T19:03:22.343Z,62.00
2018-08-18T19:05:50.997Z,62.50
2018-08-18T19:08:20.753Z,62.40
2018-08-18T19:10:49.381Z,62.70
2018-08-18T19:13:17.868Z,62.70
2018-08-18T19:15:46.381Z,63.90
2018-08-18T19:18:15.239Z,63.20
2018-08-18T19:20:43.812Z,63.60
2018-08-18T19:23:16.050Z,63.60
2018-08-18T19:25:45.817Z,63.70
2018-08-18T19:28:16.263Z,65.20
2018-08-18T19:30:44.936Z,64.60
2018-08-18T19:33:14.315Z,65.30
2018-08-18T19:35:47.007Z,65.10
2018-08-18T19:38:16.111Z,65.70
2018-08-18T19:40:46.006Z,65.80
2018-08-18T19:43:19.232Z,66.30
2018-08-18T19:45:48.041Z,66.60
2018-08-18T19:48:18.796Z,67.20
2018-08-18T19:50:54.329Z,67.90
2018-08-18T19:53:24.652Z,68.00
2018-08-18T19:55:54.328Z,68.60
2018-08-18T19:58:23.251Z,68.90
2018-08-18T20:00:51.853Z,68.90
2018-08-18T20:03:20.927Z,69.60
2018-08-18T20:05:49.606Z,72.20
2018-08-18T20:08:19.959Z,72.30
2018-08-18T20:10:54.484Z,72.60
2018-08-18T20:13:23.993Z,74.70
2018-08-18T20:15:54.691Z,76.60
2018-08-18T20:18:23.234Z,74.90
2018-08-18T20:20:51.706Z,75.30
2018-08-18T20:23:21.531Z,75.70
2018-08-18T20:25:50.611Z,76.10
2018-08-18T20:28:19.083Z,76.10
2018-08-18T20:30:47.795Z,75.70
2018-08-18T20:33:16.388Z,76.10
2018-08-18T20:35:44.902Z,76.00
2018-08-18T20:38:13.577Z,76.40
2018-08-18T20:40:42.363Z,76.70
2018-08-18T20:43:10.823Z,77.10
2018-08-18T20:45:44.756Z,77.60
2018-08-18T20:48:15.544Z,77.90
2018-08-18T20:50:44.199Z,78.40
2018-08-18T20:53:13.874Z,78.90
2018-08-18T20:55:44.883Z,79.40
2018-08-18T20:58:13.795Z,79.70
2018-08-18T21:00:42.249Z,80.30
2018-08-18T21:03:10.965Z,80.80
2018-08-18T21:05:39.503Z,81.50
2018-08-18T21:08:13.289Z,81.70
2018-08-18T21:10:41.818Z,82.70
2018-08-18T21:13:10.283Z,82.80
2018-08-18T21:15:38.917Z,83.80
2018-08-18T21:18:17.336Z,84.20
2018-08-18T21:20:45.943Z,84.80
2018-08-18T21:23:14.542Z,85.80
2018-08-18T21:25:47.075Z,86.80
2018-08-18T21:28:16.936Z,87.70
2018-08-18T21:30:45.414Z,89.30
2018-08-18T21:33:13.907Z,90.10
2018-08-18T21:35:42.396Z,90.40
2018-08-18T21:38:11.433Z,91.00
2018-08-18T21:40:39.855Z,91.10
2018-08-18T21:43:19.529Z,91.20
2018-08-18T21:45:48.319Z,91.10
2018-08-18T21:48:16.942Z,90.90
2018-08-18T21:50:46.172Z,91.00
2018-08-18T21:53:14.992Z,91.00
2018-08-18T21:55:43.425Z,90.90
2018-08-18T21:58:12.025Z,90.90
2018-08-18T22:00:46.722Z,90.90
2018-08-18T22:03:15.663Z,91.20
2018-08-18T22:05:44.139Z,91.70
2018-08-18T22:08:12.665Z,91.30
2018-08-18T22:10:45.354Z,91.40
2018-08-18T22:13:13.792Z,91.50
2018-08-18T22:15:45.220Z,91.80
2018-08-18T22:18:13.701Z,91.80
2018-08-18T22:20:42.402Z,91.90
2018-08-18T22:23:10.844Z,92.10
2018-08-18T22:25:39.276Z,92.10
2018-08-18T22:28:07.945Z,92.30
2018-08-18T22:30:36.472Z,92.50
2018-08-18T22:33:05.069Z,92.50
2018-08-18T22:35:33.675Z,92.60
2018-08-18T22:38:02.163Z,92.50
2018-08-18T22:40:30.609Z,92.70
2018-08-18T22:42:59.206Z,92.80
2018-08-18T22:45:29.142Z,92.90
2018-08-18T22:47:57.594Z,92.80
2018-08-18T22:50:26.248Z,92.90
2018-08-18T22:52:55.123Z,93.00
2018-08-18T22:55:23.604Z,93.10
2018-08-18T22:57:54.758Z,93.20
2018-08-18T23:00:23.851Z,93.40
2018-08-18T23:02:52.630Z,93.60
2018-08-18T23:05:21.637Z,93.70
2018-08-18T23:07:50.723Z,93.70
2018-08-18T23:10:19.172Z,94.10
2018-08-18T23:12:48.696Z,94.20
2018-08-18T23:15:17.160Z,94.20
2018-08-18T23:17:45.609Z,94.40
2018-08-18T23:20:14.577Z,94.20
2018-08-18T23:22:52.705Z,94.30
2018-08-18T23:25:22.090Z,94.70
2018-08-18T23:27:50.544Z,94.60
2018-08-18T23:30:23.359Z,94.60
2018-08-18T23:32:51.863Z,94.90
2018-08-18T23:35:23.571Z,95.20
2018-08-18T23:37:52.488Z,95.30
2018-08-18T23:40:21.015Z,95.00
2018-08-18T23:42:49.452Z,95.30
2018-08-18T23:45:17.999Z,95.60
2018-08-18T23:47:54.730Z,95.80
2018-08-18T23:50:23.838Z,95.80
2018-08-18T23:52:58.970Z,95.90
2018-08-18T23:55:28.823Z,96.00
2018-08-18T23:57:57.818Z,96.10
